sensor_id;sensor_type;location;lat;lon;timestamp;P1;durP1;ratioP1;P2;durP2;ratioP2
7432;SDS011;32233;49.500;7.764;2024-03-08T00:02:16;30.67;;;17.17;;
7432;SDS011;32233;49.500;7.764;2024-03-08T00:04:43;29.60;;;16.93;;
7432;SDS011;32233;49.500;7.764;2024-03-08T00:07:11;31.97;;;17.33;;
7432;SDS011;32233;49.500;7.764;2024-03-08T00:09:37;31.70;;;18.30;;
7432;SDS011;32233;49.500;7.764;2024-03-08T00:12:04;32.57;;;17.73;;
7432;SDS011;32233;49.500;7.764;2024-03-08T00:14:30;33.23;;;18.63;;
7432;SDS011;32233;49.500;7.764;2024-03-08T00:16:57;35.13;;;18.40;;
7432;SDS011;32233;49.500;7.764;2024-03-08T00:19:24;31.77;;;17.30;;
7432;SDS011;32233;49.500;7.764;2024-03-08T00:21:50;33.03;;;17.73;;
7432;SDS011;32233;49.500;7.764;2024-03-08T00:24:17;33.30;;;18.17;;
7432;SDS011;32233;49.500;7.764;2024-03-08T00:26:43;33.40;;;17.80;;
7432;SDS011;32233;49.500;7.764;2024-03-08T00:29:10;37.60;;;18.90;;
7432;SDS011;32233;49.500;7.764;2024-03-08T00:31:36;38.80;;;19.20;;
7432;SDS011;32233;49.500;7.764;2024-03-08T00:34:03;35.33;;;19.17;;
7432;SDS011;32233;49.500;7.764;2024-03-08T00:36:30;34.93;;;17.67;;
7432;SDS011;32233;49.500;7.764;2024-03-08T00:38:56;34.30;;;18.70;;
7432;SDS011;32233;49.500;7.764;2024-03-08T00:41:23;32.73;;;17.83;;
7432;SDS011;32233;49.500;7.764;2024-03-08T00:43:52;38.97;;;19.60;;
7432;SDS011;32233;49.500;7.764;2024-03-08T00:46:19;33.13;;;18.23;;
7432;SDS011;32233;49.500;7.764;2024-03-08T00:48:45;34.37;;;19.50;;
7432;SDS011;32233;49.500;7.764;2024-03-08T00:51:13;34.43;;;18.53;;
7432;SDS011;32233;49.500;7.764;2024-03-08T00:53:41;33.90;;;18.63;;
7432;SDS011;32233;49.500;7.764;2024-03-08T00:56:09;36.43;;;19.73;;
7432;SDS011;32233;49.500;7.764;2024-03-08T00:58:36;38.67;;;19.57;;
7432;SDS011;32233;49.500;7.764;2024-03-08T01:01:03;33.13;;;19.00;;
7432;SDS011;32233;49.500;7.764;2024-03-08T01:03:31;32.30;;;19.00;;
7432;SDS011;32233;49.500;7.764;2024-03-08T01:05:58;32.47;;;18.80;;
7432;SDS011;32233;49.500;7.764;2024-03-08T01:08:27;38.90;;;19.33;;
7432;SDS011;32233;49.500;7.764;2024-03-08T01:10:54;34.10;;;18.30;;
7432;SDS011;32233;49.500;7.764;2024-03-08T01:13:21;34.67;;;18.97;;
7432;SDS011;32233;49.500;7.764;2024-03-08T01:15:47;34.80;;;19.60;;
7432;SDS011;32233;49.500;7.764;2024-03-08T01:18:14;37.43;;;19.27;;
7432;SDS011;32233;49.500;7.764;2024-03-08T01:20:41;36.13;;;19.30;;
7432;SDS011;32233;49.500;7.764;2024-03-08T01:23:07;39.97;;;19.13;;
7432;SDS011;32233;49.500;7.764;2024-03-08T01:25:34;34.60;;;18.67;;
7432;SDS011;32233;49.500;7.764;2024-03-08T01:28:00;37.97;;;20.43;;
7432;SDS011;32233;49.500;7.764;2024-03-08T01:30:28;34.90;;;19.27;;
7432;SDS011;32233;49.500;7.764;2024-03-08T01:32:55;35.00;;;18.73;;
7432;SDS011;32233;49.500;7.764;2024-03-08T01:35:21;36.73;;;19.57;;
7432;SDS011;32233;49.500;7.764;2024-03-08T01:37:48;34.70;;;19.03;;
7432;SDS011;32233;49.500;7.764;2024-03-08T01:40:16;37.93;;;19.30;;
7432;SDS011;32233;49.500;7.764;2024-03-08T01:42:43;35.90;;;18.07;;
7432;SDS011;32233;49.500;7.764;2024-03-08T01:45:11;33.60;;;18.47;;
7432;SDS011;32233;49.500;7.764;2024-03-08T01:47:38;37.67;;;19.50;;
7432;SDS011;32233;49.500;7.764;2024-03-08T01:50:05;38.30;;;20.23;;
7432;SDS011;32233;49.500;7.764;2024-03-08T01:52:35;36.30;;;19.33;;
7432;SDS011;32233;49.500;7.764;2024-03-08T01:55:03;34.83;;;19.53;;
7432;SDS011;32233;49.500;7.764;2024-03-08T01:57:33;36.47;;;18.63;;
7432;SDS011;32233;49.500;7.764;2024-03-08T02:00:00;36.10;;;19.40;;
7432;SDS011;32233;49.500;7.764;2024-03-08T02:02:32;37.90;;;19.53;;
7432;SDS011;32233;49.500;7.764;2024-03-08T02:05:01;35.87;;;18.63;;
7432;SDS011;32233;49.500;7.764;2024-03-08T02:07:28;38.53;;;20.00;;
7432;SDS011;32233;49.500;7.764;2024-03-08T02:09:54;36.23;;;18.70;;
7432;SDS011;32233;49.500;7.764;2024-03-08T02:12:21;39.50;;;19.27;;
7432;SDS011;32233;49.500;7.764;2024-03-08T02:14:48;36.37;;;20.13;;
7432;SDS011;32233;49.500;7.764;2024-03-08T02:17:14;34.90;;;19.17;;
7432;SDS011;32233;49.500;7.764;2024-03-08T02:19:41;36.17;;;19.60;;
7432;SDS011;32233;49.500;7.764;2024-03-08T02:22:07;34.47;;;19.40;;
7432;SDS011;32233;49.500;7.764;2024-03-08T02:24:35;36.17;;;20.43;;
7432;SDS011;32233;49.500;7.764;2024-03-08T02:27:02;33.33;;;18.53;;
7432;SDS011;32233;49.500;7.764;2024-03-08T02:29:28;39.37;;;19.10;;
7432;SDS011;32233;49.500;7.764;2024-03-08T02:31:55;37.73;;;19.57;;
7432;SDS011;32233;49.500;7.764;2024-03-08T02:34:23;34.87;;;19.30;;
7432;SDS011;32233;49.500;7.764;2024-03-08T02:36:50;37.13;;;19.50;;
7432;SDS011;32233;49.500;7.764;2024-03-08T02:39:16;37.17;;;19.37;;
7432;SDS011;32233;49.500;7.764;2024-03-08T02:41:43;37.27;;;19.00;;
7432;SDS011;32233;49.500;7.764;2024-03-08T02:44:10;35.03;;;19.63;;
7432;SDS011;32233;49.500;7.764;2024-03-08T02:46:38;36.97;;;19.77;;
7432;SDS011;32233;49.500;7.764;2024-03-08T02:49:05;40.80;;;20.67;;
7432;SDS011;32233;49.500;7.764;2024-03-08T02:51:34;38.07;;;19.30;;
7432;SDS011;32233;49.500;7.764;2024-03-08T02:54:02;33.73;;;18.90;;
7432;SDS011;32233;49.500;7.764;2024-03-08T02:56:30;39.17;;;20.33;;
7432;SDS011;32233;49.500;7.764;2024-03-08T02:59:01;35.33;;;19.43;;
7432;SDS011;32233;49.500;7.764;2024-03-08T03:01:27;36.93;;;19.67;;
7432;SDS011;32233;49.500;7.764;2024-03-08T03:03:54;42.43;;;19.57;;
7432;SDS011;32233;49.500;7.764;2024-03-08T03:06:21;39.23;;;19.77;;
7432;SDS011;32233;49.500;7.764;2024-03-08T03:08:47;35.70;;;19.60;;
7432;SDS011;32233;49.500;7.764;2024-03-08T03:11:15;36.80;;;19.60;;
7432;SDS011;32233;49.500;7.764;2024-03-08T03:13:41;40.40;;;20.27;;
7432;SDS011;32233;49.500;7.764;2024-03-08T03:16:08;37.27;;;18.90;;
7432;SDS011;32233;49.500;7.764;2024-03-08T03:18:36;39.53;;;19.80;;
7432;SDS011;32233;49.500;7.764;2024-03-08T03:21:03;37.67;;;19.73;;
7432;SDS011;32233;49.500;7.764;2024-03-08T03:23:33;38.47;;;19.87;;
7432;SDS011;32233;49.500;7.764;2024-03-08T03:26:01;40.23;;;19.70;;
7432;SDS011;32233;49.500;7.764;2024-03-08T03:28:28;37.27;;;19.20;;
7432;SDS011;32233;49.500;7.764;2024-03-08T03:30:55;39.67;;;19.77;;
7432;SDS011;32233;49.500;7.764;2024-03-08T03:33:25;36.17;;;18.73;;
7432;SDS011;32233;49.500;7.764;2024-03-08T03:35:52;39.10;;;20.37;;
7432;SDS011;32233;49.500;7.764;2024-03-08T03:38:19;39.00;;;19.90;;
7432;SDS011;32233;49.500;7.764;2024-03-08T03:40:49;37.33;;;19.90;;
7432;SDS011;32233;49.500;7.764;2024-03-08T03:43:18;38.30;;;18.87;;
7432;SDS011;32233;49.500;7.764;2024-03-08T03:45:45;37.43;;;19.73;;
7432;SDS011;32233;49.500;7.764;2024-03-08T03:48:11;37.17;;;20.10;;
7432;SDS011;32233;49.500;7.764;2024-03-08T03:50:39;38.93;;;19.40;;
7432;SDS011;32233;49.500;7.764;2024-03-08T03:53:06;38.00;;;20.00;;
7432;SDS011;32233;49.500;7.764;2024-03-08T03:55:34;38.63;;;19.13;;
7432;SDS011;32233;49.500;7.764;2024-03-08T03:58:03;36.23;;;19.17;;
7432;SDS011;32233;49.500;7.764;2024-03-08T04:00:30;37.50;;;19.77;;
7432;SDS011;32233;49.500;7.764;2024-03-08T04:02:56;37.47;;;19.37;;
7432;SDS011;32233;49.500;7.764;2024-03-08T04:05:26;38.37;;;19.90;;
7432;SDS011;32233;49.500;7.764;2024-03-08T04:07:53;38.73;;;19.73;;
7432;SDS011;32233;49.500;7.764;2024-03-08T04:10:20;37.60;;;19.50;;
7432;SDS011;32233;49.500;7.764;2024-03-08T04:12:46;37.43;;;19.50;;
7432;SDS011;32233;49.500;7.764;2024-03-08T04:15:13;33.93;;;18.30;;
7432;SDS011;32233;49.500;7.764;2024-03-08T04:17:40;36.77;;;18.60;;
7432;SDS011;32233;49.500;7.764;2024-03-08T04:20:07;39.20;;;18.70;;
7432;SDS011;32233;49.500;7.764;2024-03-08T04:22:37;35.60;;;19.10;;
7432;SDS011;32233;49.500;7.764;2024-03-08T04:25:04;38.07;;;20.13;;
7432;SDS011;32233;49.500;7.764;2024-03-08T04:27:32;37.93;;;18.57;;
7432;SDS011;32233;49.500;7.764;2024-03-08T04:30:00;37.43;;;19.13;;
7432;SDS011;32233;49.500;7.764;2024-03-08T04:32:27;36.10;;;18.70;;
7432;SDS011;32233;49.500;7.764;2024-03-08T04:34:56;34.63;;;18.50;;
7432;SDS011;32233;49.500;7.764;2024-03-08T04:37:23;36.03;;;18.20;;
7432;SDS011;32233;49.500;7.764;2024-03-08T04:39:51;31.67;;;18.50;;
7432;SDS011;32233;49.500;7.764;2024-03-08T04:42:17;35.17;;;18.50;;
7432;SDS011;32233;49.500;7.764;2024-03-08T04:44:45;36.03;;;18.23;;
7432;SDS011;32233;49.500;7.764;2024-03-08T04:47:11;38.47;;;19.40;;
7432;SDS011;32233;49.500;7.764;2024-03-08T04:49:38;38.53;;;18.13;;
7432;SDS011;32233;49.500;7.764;2024-03-08T04:52:05;38.13;;;19.03;;
7432;SDS011;32233;49.500;7.764;2024-03-08T04:54:33;43.40;;;21.77;;
7432;SDS011;32233;49.500;7.764;2024-03-08T04:56:59;36.37;;;18.33;;
7432;SDS011;32233;49.500;7.764;2024-03-08T04:59:34;36.80;;;20.00;;
7432;SDS011;32233;49.500;7.764;2024-03-08T05:02:01;35.53;;;18.87;;
7432;SDS011;32233;49.500;7.764;2024-03-08T05:04:27;38.33;;;19.60;;
7432;SDS011;32233;49.500;7.764;2024-03-08T05:06:55;36.60;;;18.73;;
7432;SDS011;32233;49.500;7.764;2024-03-08T05:09:21;35.00;;;18.87;;
7432;SDS011;32233;49.500;7.764;2024-03-08T05:11:48;39.10;;;20.00;;
7432;SDS011;32233;49.500;7.764;2024-03-08T05:14:16;37.17;;;19.10;;
7432;SDS011;32233;49.500;7.764;2024-03-08T05:16:43;36.73;;;19.20;;
7432;SDS011;32233;49.500;7.764;2024-03-08T05:19:15;36.97;;;19.23;;
7432;SDS011;32233;49.500;7.764;2024-03-08T05:21:45;37.53;;;19.47;;
7432;SDS011;32233;49.500;7.764;2024-03-08T05:24:13;40.07;;;19.73;;
7432;SDS011;32233;49.500;7.764;2024-03-08T05:26:41;39.70;;;20.40;;
7432;SDS011;32233;49.500;7.764;2024-03-08T05:29:08;39.83;;;20.80;;
7432;SDS011;32233;49.500;7.764;2024-03-08T05:31:39;38.20;;;19.70;;
7432;SDS011;32233;49.500;7.764;2024-03-08T05:34:13;39.73;;;20.33;;
7432;SDS011;32233;49.500;7.764;2024-03-08T05:36:41;38.00;;;19.57;;
7432;SDS011;32233;49.500;7.764;2024-03-08T05:39:12;37.90;;;19.77;;
7432;SDS011;32233;49.500;7.764;2024-03-08T05:41:40;42.57;;;20.63;;
7432;SDS011;32233;49.500;7.764;2024-03-08T05:44:07;39.23;;;20.53;;
7432;SDS011;32233;49.500;7.764;2024-03-08T05:46:34;39.80;;;20.17;;
7432;SDS011;32233;49.500;7.764;2024-03-08T05:49:05;37.43;;;19.73;;
7432;SDS011;32233;49.500;7.764;2024-03-08T05:51:33;35.23;;;19.57;;
7432;SDS011;32233;49.500;7.764;2024-03-08T05:54:01;43.40;;;21.63;;
7432;SDS011;32233;49.500;7.764;2024-03-08T05:56:32;41.00;;;20.70;;
7432;SDS011;32233;49.500;7.764;2024-03-08T05:58:59;38.50;;;20.80;;
7432;SDS011;32233;49.500;7.764;2024-03-08T06:01:26;40.97;;;21.17;;
7432;SDS011;32233;49.500;7.764;2024-03-08T06:03:54;43.10;;;19.90;;
7432;SDS011;32233;49.500;7.764;2024-03-08T06:06:22;41.10;;;21.33;;
7432;SDS011;32233;49.500;7.764;2024-03-08T06:08:50;41.80;;;20.20;;
7432;SDS011;32233;49.500;7.764;2024-03-08T06:11:17;39.30;;;19.83;;
7432;SDS011;32233;49.500;7.764;2024-03-08T06:13:45;41.50;;;20.83;;
7432;SDS011;32233;49.500;7.764;2024-03-08T06:16:12;40.57;;;20.90;;
7432;SDS011;32233;49.500;7.764;2024-03-08T06:18:39;43.60;;;20.63;;
7432;SDS011;32233;49.500;7.764;2024-03-08T06:21:06;42.73;;;21.20;;
7432;SDS011;32233;49.500;7.764;2024-03-08T06:23:33;41.77;;;21.40;;
7432;SDS011;32233;49.500;7.764;2024-03-08T06:26:05;38.40;;;20.93;;
7432;SDS011;32233;49.500;7.764;2024-03-08T06:28:31;43.47;;;21.87;;
7432;SDS011;32233;49.500;7.764;2024-03-08T06:30:58;43.87;;;21.07;;
7432;SDS011;32233;49.500;7.764;2024-03-08T06:33:26;41.53;;;20.67;;
7432;SDS011;32233;49.500;7.764;2024-03-08T06:35:57;40.23;;;20.63;;
7432;SDS011;32233;49.500;7.764;2024-03-08T06:38:24;44.10;;;22.17;;
7432;SDS011;32233;49.500;7.764;2024-03-08T06:40:51;44.73;;;21.47;;
7432;SDS011;32233;49.500;7.764;2024-03-08T06:43:18;37.53;;;20.37;;
7432;SDS011;32233;49.500;7.764;2024-03-08T06:45:45;44.17;;;21.00;;
7432;SDS011;32233;49.500;7.764;2024-03-08T06:48:18;39.63;;;20.57;;
7432;SDS011;32233;49.500;7.764;2024-03-08T06:50:46;40.30;;;20.50;;
7432;SDS011;32233;49.500;7.764;2024-03-08T06:53:14;39.53;;;21.57;;
7432;SDS011;32233;49.500;7.764;2024-03-08T06:55:42;40.60;;;21.37;;
7432;SDS011;32233;49.500;7.764;2024-03-08T06:58:10;39.60;;;20.33;;
7432;SDS011;32233;49.500;7.764;2024-03-08T07:00:37;37.90;;;20.50;;
7432;SDS011;32233;49.500;7.764;2024-03-08T09:23:25;37.73;;;19.93;;
7432;SDS011;32233;49.500;7.764;2024-03-08T09:25:56;30.80;;;17.97;;
7432;SDS011;32233;49.500;7.764;2024-03-08T09:28:24;29.57;;;18.23;;
7432;SDS011;32233;49.500;7.764;2024-03-08T09:30:51;32.20;;;19.27;;
7432;SDS011;32233;49.500;7.764;2024-03-08T09:33:25;30.37;;;18.90;;
7432;SDS011;32233;49.500;7.764;2024-03-08T09:35:53;27.70;;;18.00;;
7432;SDS011;32233;49.500;7.764;2024-03-08T09:38:20;31.47;;;18.57;;
7432;SDS011;32233;49.500;7.764;2024-03-08T09:40:47;34.13;;;19.57;;
7432;SDS011;32233;49.500;7.764;2024-03-08T09:43:14;32.97;;;19.40;;
7432;SDS011;32233;49.500;7.764;2024-03-08T09:45:41;33.83;;;19.70;;
7432;SDS011;32233;49.500;7.764;2024-03-08T09:48:11;30.07;;;18.63;;
7432;SDS011;32233;49.500;7.764;2024-03-08T09:50:41;32.27;;;19.87;;
7432;SDS011;32233;49.500;7.764;2024-03-08T09:53:08;30.23;;;19.33;;
7432;SDS011;32233;49.500;7.764;2024-03-08T09:55:36;31.67;;;19.40;;
7432;SDS011;32233;49.500;7.764;2024-03-08T09:58:05;34.53;;;19.83;;
7432;SDS011;32233;49.500;7.764;2024-03-08T10:00:50;30.53;;;18.50;;
7432;SDS011;32233;49.500;7.764;2024-03-08T10:03:18;29.77;;;19.33;;
7432;SDS011;32233;49.500;7.764;2024-03-08T10:05:45;29.53;;;19.33;;
7432;SDS011;32233;49.500;7.764;2024-03-08T10:08:12;32.97;;;20.50;;
7432;SDS011;32233;49.500;7.764;2024-03-08T10:10:39;27.23;;;18.07;;
7432;SDS011;32233;49.500;7.764;2024-03-08T10:13:06;28.97;;;20.03;;
7432;SDS011;32233;49.500;7.764;2024-03-08T10:15:33;29.77;;;19.77;;
7432;SDS011;32233;49.500;7.764;2024-03-08T10:18:00;29.23;;;19.20;;
7432;SDS011;32233;49.500;7.764;2024-03-08T10:20:29;29.03;;;19.60;;
7432;SDS011;32233;49.500;7.764;2024-03-08T10:23:03;31.53;;;19.57;;
7432;SDS011;32233;49.500;7.764;2024-03-08T10:25:37;29.97;;;19.53;;
7432;SDS011;32233;49.500;7.764;2024-03-08T10:28:04;26.93;;;18.93;;
7432;SDS011;32233;49.500;7.764;2024-03-08T10:30:31;25.37;;;18.10;;
7432;SDS011;32233;49.500;7.764;2024-03-08T10:32:58;28.70;;;19.40;;
7432;SDS011;32233;49.500;7.764;2024-03-08T10:35:25;25.43;;;18.30;;
7432;SDS011;32233;49.500;7.764;2024-03-08T10:37:53;29.77;;;18.33;;
7432;SDS011;32233;49.500;7.764;2024-03-08T10:40:27;27.83;;;18.63;;
7432;SDS011;32233;49.500;7.764;2024-03-08T10:42:58;24.50;;;17.73;;
7432;SDS011;32233;49.500;7.764;2024-03-08T10:45:37;27.13;;;18.63;;
7432;SDS011;32233;49.500;7.764;2024-03-08T10:51:03;28.17;;;18.33;;
7432;SDS011;32233;49.500;7.764;2024-03-08T10:53:31;26.90;;;18.10;;
7432;SDS011;32233;49.500;7.764;2024-03-08T10:56:00;27.60;;;19.07;;
7432;SDS011;32233;49.500;7.764;2024-03-08T10:58:28;29.63;;;19.30;;
7432;SDS011;32233;49.500;7.764;2024-03-08T11:00:56;27.23;;;18.77;;
7432;SDS011;32233;49.500;7.764;2024-03-08T11:08:43;27.43;;;18.17;;
7432;SDS011;32233;49.500;7.764;2024-03-08T11:11:31;26.70;;;17.47;;
7432;SDS011;32233;49.500;7.764;2024-03-08T11:14:01;27.87;;;17.53;;
7432;SDS011;32233;49.500;7.764;2024-03-08T11:18:58;28.70;;;18.10;;
7432;SDS011;32233;49.500;7.764;2024-03-08T11:21:32;27.83;;;17.77;;
7432;SDS011;32233;49.500;7.764;2024-03-08T11:24:01;27.70;;;18.40;;
7432;SDS011;32233;49.500;7.764;2024-03-08T11:26:32;27.13;;;18.33;;
7432;SDS011;32233;49.500;7.764;2024-03-08T11:32:10;27.90;;;18.50;;
7432;SDS011;32233;49.500;7.764;2024-03-08T11:34:40;30.20;;;19.37;;
7432;SDS011;32233;49.500;7.764;2024-03-08T11:37:13;29.37;;;18.53;;
7432;SDS011;32233;49.500;7.764;2024-03-08T11:39:48;26.10;;;17.30;;
7432;SDS011;32233;49.500;7.764;2024-03-08T11:42:18;25.60;;;18.07;;
7432;SDS011;32233;49.500;7.764;2024-03-08T11:44:50;22.90;;;16.77;;
7432;SDS011;32233;49.500;7.764;2024-03-08T11:47:36;25.63;;;17.50;;
7432;SDS011;32233;49.500;7.764;2024-03-08T11:50:06;27.40;;;18.47;;
7432;SDS011;32233;49.500;7.764;2024-03-08T11:52:37;27.43;;;18.17;;
7432;SDS011;32233;49.500;7.764;2024-03-08T11:55:06;27.57;;;18.40;;
7432;SDS011;32233;49.500;7.764;2024-03-08T11:57:33;27.50;;;18.00;;
7432;SDS011;32233;49.500;7.764;2024-03-08T12:00:00;28.83;;;18.67;;
7432;SDS011;32233;49.500;7.764;2024-03-08T12:02:34;28.27;;;17.33;;
7432;SDS011;32233;49.500;7.764;2024-03-08T12:05:07;25.43;;;17.57;;
7432;SDS011;32233;49.500;7.764;2024-03-08T12:07:35;27.97;;;18.50;;
7432;SDS011;32233;49.500;7.764;2024-03-08T12:10:19;26.63;;;17.77;;
7432;SDS011;32233;49.500;7.764;2024-03-08T12:12:52;24.37;;;17.47;;
7432;SDS011;32233;49.500;7.764;2024-03-08T12:15:21;25.50;;;17.83;;
7432;SDS011;32233;49.500;7.764;2024-03-08T12:17:50;26.43;;;18.03;;
7432;SDS011;32233;49.500;7.764;2024-03-08T12:20:23;27.30;;;18.20;;
7432;SDS011;32233;49.500;7.764;2024-03-08T12:22:52;26.30;;;17.93;;
7432;SDS011;32233;49.500;7.764;2024-03-08T12:25:20;25.70;;;17.77;;
7432;SDS011;32233;49.500;7.764;2024-03-08T12:27:47;23.67;;;17.37;;
7432;SDS011;32233;49.500;7.764;2024-03-08T12:32:51;21.57;;;16.00;;
7432;SDS011;32233;49.500;7.764;2024-03-08T12:35:29;22.10;;;16.43;;
7432;SDS011;32233;49.500;7.764;2024-03-08T12:37:57;22.23;;;17.17;;
7432;SDS011;32233;49.500;7.764;2024-03-08T12:40:26;20.30;;;16.40;;
7432;SDS011;32233;49.500;7.764;2024-03-08T12:42:55;18.97;;;15.60;;
7432;SDS011;32233;49.500;7.764;2024-03-08T12:45:23;20.00;;;16.13;;
7432;SDS011;32233;49.500;7.764;2024-03-08T12:47:51;22.00;;;16.13;;
7432;SDS011;32233;49.500;7.764;2024-03-08T12:50:18;21.33;;;16.23;;
7432;SDS011;32233;49.500;7.764;2024-03-08T12:52:45;21.53;;;16.93;;
7432;SDS011;32233;49.500;7.764;2024-03-08T12:55:12;20.70;;;16.10;;
7432;SDS011;32233;49.500;7.764;2024-03-08T12:57:39;21.70;;;16.47;;
7432;SDS011;32233;49.500;7.764;2024-03-08T13:00:07;20.80;;;17.00;;
7432;SDS011;32233;49.500;7.764;2024-03-08T13:02:39;22.53;;;17.07;;
7432;SDS011;32233;49.500;7.764;2024-03-08T13:05:07;16.43;;;12.87;;
7432;SDS011;32233;49.500;7.764;2024-03-08T13:07:35;17.87;;;14.57;;
7432;SDS011;32233;49.500;7.764;2024-03-08T13:10:03;19.07;;;14.50;;
7432;SDS011;32233;49.500;7.764;2024-03-08T13:12:31;17.50;;;13.97;;
7432;SDS011;32233;49.500;7.764;2024-03-08T13:14:57;18.93;;;15.27;;
7432;SDS011;32233;49.500;7.764;2024-03-08T13:17:24;20.37;;;15.80;;
7432;SDS011;32233;49.500;7.764;2024-03-08T13:19:50;20.13;;;15.43;;
7432;SDS011;32233;49.500;7.764;2024-03-08T13:22:17;19.93;;;16.43;;
7432;SDS011;32233;49.500;7.764;2024-03-08T13:24:44;25.07;;;17.20;;
7432;SDS011;32233;49.500;7.764;2024-03-08T13:27:11;20.63;;;16.07;;
7432;SDS011;32233;49.500;7.764;2024-03-08T13:29:48;25.10;;;16.80;;
7432;SDS011;32233;49.500;7.764;2024-03-08T13:32:15;25.20;;;16.87;;
7432;SDS011;32233;49.500;7.764;2024-03-08T13:34:43;26.50;;;17.10;;
7432;SDS011;32233;49.500;7.764;2024-03-08T13:37:20;23.87;;;16.13;;
7432;SDS011;32233;49.500;7.764;2024-03-08T13:39:47;22.77;;;16.57;;
7432;SDS011;32233;49.500;7.764;2024-03-08T13:42:14;25.60;;;16.60;;
7432;SDS011;32233;49.500;7.764;2024-03-08T13:44:45;24.10;;;16.00;;
7432;SDS011;32233;49.500;7.764;2024-03-08T13:47:13;21.80;;;14.17;;
7432;SDS011;32233;49.500;7.764;2024-03-08T13:49:40;26.77;;;17.90;;
7432;SDS011;32233;49.500;7.764;2024-03-08T13:52:07;27.37;;;17.60;;
7432;SDS011;32233;49.500;7.764;2024-03-08T13:54:35;24.23;;;16.30;;
7432;SDS011;32233;49.500;7.764;2024-03-08T13:57:02;24.97;;;15.60;;
7432;SDS011;32233;49.500;7.764;2024-03-08T13:59:31;25.77;;;16.50;;
7432;SDS011;32233;49.500;7.764;2024-03-08T14:01:59;24.23;;;16.00;;
7432;SDS011;32233;49.500;7.764;2024-03-08T14:04:28;25.60;;;16.50;;
7432;SDS011;32233;49.500;7.764;2024-03-08T14:06:55;25.20;;;16.00;;
7432;SDS011;32233;49.500;7.764;2024-03-08T14:09:30;27.53;;;16.57;;
7432;SDS011;32233;49.500;7.764;2024-03-08T14:11:57;28.77;;;16.60;;
7432;SDS011;32233;49.500;7.764;2024-03-08T14:14:24;25.83;;;16.17;;
7432;SDS011;32233;49.500;7.764;2024-03-08T14:16:51;26.27;;;16.13;;
7432;SDS011;32233;49.500;7.764;2024-03-08T14:19:19;26.63;;;16.70;;
7432;SDS011;32233;49.500;7.764;2024-03-08T14:21:46;24.70;;;15.47;;
7432;SDS011;32233;49.500;7.764;2024-03-08T14:24:17;26.30;;;16.20;;
7432;SDS011;32233;49.500;7.764;2024-03-08T14:26:45;24.63;;;15.40;;
7432;SDS011;32233;49.500;7.764;2024-03-08T14:29:12;24.70;;;16.30;;
7432;SDS011;32233;49.500;7.764;2024-03-08T14:31:39;27.97;;;16.87;;
7432;SDS011;32233;49.500;7.764;2024-03-08T14:34:07;26.43;;;17.00;;
7432;SDS011;32233;49.500;7.764;2024-03-08T14:36:34;26.37;;;16.47;;
7432;SDS011;32233;49.500;7.764;2024-03-08T14:39:01;25.60;;;16.37;;
7432;SDS011;32233;49.500;7.764;2024-03-08T14:41:27;24.70;;;16.33;;
7432;SDS011;32233;49.500;7.764;2024-03-08T14:43:54;26.07;;;16.47;;
7432;SDS011;32233;49.500;7.764;2024-03-08T14:46:21;27.17;;;17.40;;
7432;SDS011;32233;49.500;7.764;2024-03-08T14:48:49;26.57;;;17.00;;
7432;SDS011;32233;49.500;7.764;2024-03-08T14:51:19;27.03;;;16.67;;
7432;SDS011;32233;49.500;7.764;2024-03-08T14:53:48;26.57;;;16.43;;
7432;SDS011;32233;49.500;7.764;2024-03-08T14:56:16;28.37;;;16.73;;
7432;SDS011;32233;49.500;7.764;2024-03-08T14:58:46;25.93;;;15.83;;
7432;SDS011;32233;49.500;7.764;2024-03-08T15:01:15;26.67;;;17.60;;
7432;SDS011;32233;49.500;7.764;2024-03-08T15:03:42;25.83;;;16.60;;
7432;SDS011;32233;49.500;7.764;2024-03-08T15:06:09;27.23;;;16.70;;
7432;SDS011;32233;49.500;7.764;2024-03-08T15:08:36;27.23;;;16.63;;
7432;SDS011;32233;49.500;7.764;2024-03-08T15:11:04;26.97;;;16.80;;
7432;SDS011;32233;49.500;7.764;2024-03-08T15:13:35;27.50;;;17.73;;
7432;SDS011;32233;49.500;7.764;2024-03-08T15:16:08;28.20;;;16.70;;
7432;SDS011;32233;49.500;7.764;2024-03-08T15:18:35;24.93;;;16.50;;
7432;SDS011;32233;49.500;7.764;2024-03-08T15:21:03;29.83;;;17.93;;
7432;SDS011;32233;49.500;7.764;2024-03-08T15:23:36;26.30;;;17.07;;
7432;SDS011;32233;49.500;7.764;2024-03-08T15:26:02;27.20;;;17.73;;
7432;SDS011;32233;49.500;7.764;2024-03-08T15:28:34;27.53;;;16.97;;
7432;SDS011;32233;49.500;7.764;2024-03-08T15:31:03;28.23;;;17.77;;
7432;SDS011;32233;49.500;7.764;2024-03-08T15:33:34;26.97;;;17.47;;
7432;SDS011;32233;49.500;7.764;2024-03-08T15:36:05;30.10;;;17.00;;
7432;SDS011;32233;49.500;7.764;2024-03-08T15:38:35;28.67;;;16.23;;
7432;SDS011;32233;49.500;7.764;2024-03-08T15:41:03;25.63;;;16.73;;
7432;SDS011;32233;49.500;7.764;2024-03-08T15:43:36;28.63;;;16.60;;
7432;SDS011;32233;49.500;7.764;2024-03-08T15:46:03;25.17;;;16.00;;
7432;SDS011;32233;49.500;7.764;2024-03-08T15:48:33;28.23;;;16.87;;
7432;SDS011;32233;49.500;7.764;2024-03-08T15:51:04;28.97;;;16.80;;
7432;SDS011;32233;49.500;7.764;2024-03-08T15:53:36;28.00;;;16.70;;
7432;SDS011;32233;49.500;7.764;2024-03-08T15:56:06;28.53;;;16.53;;
7432;SDS011;32233;49.500;7.764;2024-03-08T15:58:35;27.90;;;17.17;;
7432;SDS011;32233;49.500;7.764;2024-03-08T16:01:03;28.53;;;17.20;;
7432;SDS011;32233;49.500;7.764;2024-03-08T16:03:37;27.27;;;17.03;;
7432;SDS011;32233;49.500;7.764;2024-03-08T16:06:04;28.67;;;17.90;;
7432;SDS011;32233;49.500;7.764;2024-03-08T16:08:31;28.83;;;16.73;;
7432;SDS011;32233;49.500;7.764;2024-03-08T16:10:59;29.73;;;17.40;;
7432;SDS011;32233;49.500;7.764;2024-03-08T16:13:26;29.00;;;16.70;;
7432;SDS011;32233;49.500;7.764;2024-03-08T16:15:54;28.87;;;16.77;;
7432;SDS011;32233;49.500;7.764;2024-03-08T16:18:22;27.87;;;17.03;;
7432;SDS011;32233;49.500;7.764;2024-03-08T16:20:51;29.07;;;17.47;;
7432;SDS011;32233;49.500;7.764;2024-03-08T16:23:19;27.23;;;16.57;;
7432;SDS011;32233;49.500;7.764;2024-03-08T16:25:47;29.23;;;17.47;;
7432;SDS011;32233;49.500;7.764;2024-03-08T16:28:14;27.60;;;17.23;;
7432;SDS011;32233;49.500;7.764;2024-03-08T16:30:41;28.93;;;18.00;;
7432;SDS011;32233;49.500;7.764;2024-03-08T16:33:14;33.00;;;22.53;;
7432;SDS011;32233;49.500;7.764;2024-03-08T16:35:42;33.50;;;19.57;;
7432;SDS011;32233;49.500;7.764;2024-03-08T16:38:12;27.13;;;16.57;;
7432;SDS011;32233;49.500;7.764;2024-03-08T16:40:40;31.53;;;18.33;;
7432;SDS011;32233;49.500;7.764;2024-03-08T16:43:11;28.43;;;17.00;;
7432;SDS011;32233;49.500;7.764;2024-03-08T16:45:40;28.03;;;17.27;;
7432;SDS011;32233;49.500;7.764;2024-03-08T16:48:09;30.40;;;18.47;;
7432;SDS011;32233;49.500;7.764;2024-03-08T16:50:36;29.30;;;16.77;;
7432;SDS011;32233;49.500;7.764;2024-03-08T16:53:03;33.97;;;22.00;;
7432;SDS011;32233;49.500;7.764;2024-03-08T16:55:30;29.33;;;18.00;;
7432;SDS011;32233;49.500;7.764;2024-03-08T16:57:57;27.73;;;17.57;;
7432;SDS011;32233;49.500;7.764;2024-03-08T17:00:25;37.17;;;22.70;;
7432;SDS011;32233;49.500;7.764;2024-03-08T17:02:58;28.60;;;17.10;;
7432;SDS011;32233;49.500;7.764;2024-03-08T17:05:28;41.57;;;28.60;;
7432;SDS011;32233;49.500;7.764;2024-03-08T17:07:59;36.70;;;22.63;;
7432;SDS011;32233;49.500;7.764;2024-03-08T17:10:32;32.37;;;19.63;;
7432;SDS011;32233;49.500;7.764;2024-03-08T17:13:01;37.00;;;23.50;;
7432;SDS011;32233;49.500;7.764;2024-03-08T17:15:28;31.80;;;20.17;;
7432;SDS011;32233;49.500;7.764;2024-03-08T17:17:59;32.30;;;19.17;;